Time;durP1;ratioP1;P1;durP2;ratioP2;P2;SDS_P1;SDS_P2;PMS_P1;PMS_P2;Temp;Humidity;BMP_temperature;BMP_pressure;BME280_temperature;BME280_humidity;BME280_pressure;Samples;Min_cycle;Max_cycle;Signal;HPM_P1;HPM_P2
2022/11/17 00:00:30;;;;;;;;;;;;;;;11.67;80.74;100392.63;1916581;75;20138;-56
2022/11/17 00:02:58;;;;;;;;;;;;;;;11.68;80.91;100381.16;1914982;75;20141;-56
2022/11/17 00:05:26;;;;;;;;;;;;;;;11.73;81.09;100388.36;1914412;75;20122;-57
2022/11/17 00:07:53;;;;;;;;;;;;;;;11.79;81.08;100381.48;1916599;75;20150;-56
2022/11/17 00:10:21;;;;;;;;;;;;;;;11.86;80.82;100374.09;1908380;75;20114;-56
2022/11/17 00:15:35;;;;;;;;;;;;;;;11.95;80.52;100374.55;1866017;77;20501;-52
2022/11/17 00:23:46;;;;;;;;;;;;;;;12.14;79.84;100376.25;1897649;76;20165;-56
2022/11/17 00:26:15;;;;;;;;;;;;;;;12.16;79.74;100363.82;1898074;76;20196;-57
2022/11/17 00:28:42;;;;;;;;;;;;;;;12.21;79.50;100365.77;1898168;76;20126;-56
2022/11/17 00:34:04;;;;;;;;;;;;;;;12.23;79.30;100369.62;1874644;76;20110;-63
2022/11/17 00:36:34;;;;;;;;;;;;;;;12.24;79.18;100361.63;1898146;76;20118;-63
2022/11/17 00:39:01;;;;;;;;;;;;;;;12.26;79.08;100365.03;1898217;75;20098;-56
2022/11/17 00:41:29;;;;;;;;;;;;;;;12.26;79.04;100359.75;1898332;76;20118;-62
2022/11/17 00:43:57;;;;;;;;;;;;;;;12.28;79.03;100349.12;1892583;76;20120;-60
2022/11/17 00:46:25;;;;;;;;;;;;;;;12.31;78.91;100360.38;1874938;76;20152;-59
2022/11/17 00:48:53;;;;;;;;;;;;;;;12.35;78.84;100362.39;1883821;76;20104;-59
2022/11/17 00:51:21;;;;;;;;;;;;;;;12.36;78.79;100355.71;1877713;76;20198;-60
2022/11/17 00:53:48;;;;;;;;;;;;;;;12.41;78.59;100364.69;1884212;76;20113;-57
2022/11/17 00:56:17;;;;;;;;;;;;;;;12.42;78.49;100361.61;1868477;76;20121;-58
2022/11/17 00:58:45;;;;;;;;;;;;;;;12.46;78.32;100348.63;1880077;76;20160;-60
2022/11/17 01:01:12;;;;;;;;;;;;;;;12.49;78.21;100357.23;1868185;76;20151;-60
2022/11/17 01:03:40;;;;;;;;;;;;;;;12.50;78.15;100357.61;1868446;76;20117;-51
2022/11/17 01:06:09;;;;;;;;;;;;;;;12.51;78.15;100350.56;1893930;76;20456;-63
2022/11/17 01:08:37;;;;;;;;;;;;;;;12.47;78.27;100356.95;1894761;76;20357;-64
2022/11/17 01:11:16;;;;;;;;;;;;;;;12.35;78.47;100346.07;1898210;75;20145;-68
2022/11/17 01:13:44;;;;;;;;;;;;;;;12.19;78.92;100332.00;1898184;75;20122;-57
2022/11/17 01:16:14;;;;;;;;;;;;;;;12.06;79.23;100337.06;1895808;76;20144;-57
2022/11/17 01:18:42;;;;;;;;;;;;;;;11.96;80.50;100335.34;1898295;76;20122;-55
2022/11/17 01:21:11;;;;;;;;;;;;;;;11.86;81.09;100341.13;1895890;76;20110;-54
2022/11/17 01:23:40;;;;;;;;;;;;;;;11.77;81.91;100338.51;1896624;76;20120;-59
2022/11/17 01:26:09;;;;;;;;;;;;;;;11.74;81.90;100336.02;1869199;76;20391;-61
2022/11/17 01:28:38;;;;;;;;;;;;;;;11.72;82.60;100338.72;1866152;77;20109;-61
2022/11/17 01:31:07;;;;;;;;;;;;;;;11.72;82.38;100349.75;1865995;77;20121;-62
2022/11/17 01:33:35;;;;;;;;;;;;;;;11.72;82.85;100357.66;1882844;76;20168;-62
2022/11/17 01:36:07;;;;;;;;;;;;;;;11.73;82.72;100358.03;1892023;76;20145;-63
2022/11/17 01:38:37;;;;;;;;;;;;;;;11.74;82.96;100359.75;1895474;76;20232;-64
2022/11/17 01:41:25;;;;;;;;;;;;;;;11.77;83.25;100363.09;1869527;76;20209;-60
2022/11/17 01:43:54;;;;;;;;;;;;;;;11.79;83.12;100353.31;1866201;77;20116;-63
2022/11/17 01:46:23;;;;;;;;;;;;;;;11.82;83.22;100358.89;1869839;76;20109;-66
2022/11/17 01:48:52;;;;;;;;;;;;;;;11.81;82.99;100351.92;1870167;75;20147;-61
2022/11/17 01:51:21;;;;;;;;;;;;;;;11.79;83.44;100355.11;1867322;76;20136;-63
2022/11/17 01:53:50;;;;;;;;;;;;;;;11.78;83.52;100364.81;1866139;76;20128;-58
2022/11/17 01:56:19;;;;;;;;;;;;;;;11.76;83.57;100358.73;1869881;76;20207;-56
2022/11/17 01:58:48;;;;;;;;;;;;;;;11.76;83.45;100360.52;1897222;76;20098;-54
2022/11/17 02:01:16;;;;;;;;;;;;;;;11.75;83.69;100371.55;1883483;76;20150;-58
2022/11/17 02:03:45;;;;;;;;;;;;;;;11.76;83.75;100375.03;1866393;76;20136;-58
2022/11/17 02:06:18;;;;;;;;;;;;;;;11.75;83.70;100370.23;1867455;76;20116;-59
2022/11/17 02:08:45;;;;;;;;;;;;;;;11.77;83.77;100372.80;1869781;76;20233;-60
2022/11/17 02:11:15;;;;;;;;;;;;;;;11.78;83.60;100375.81;1866195;77;20117;-57
2022/11/17 02:13:43;;;;;;;;;;;;;;;11.78;83.47;100375.36;1865631;77;20112;-59
2022/11/17 02:16:12;;;;;;;;;;;;;;;11.83;83.46;100369.84;1862446;76;20118;-59
2022/11/17 02:18:41;;;;;;;;;;;;;;;11.88;83.33;100368.31;1866080;76;20144;-61
2022/11/17 02:21:14;;;;;;;;;;;;;;;11.94;83.18;100366.70;1861160;77;20971;-61
2022/11/17 02:23:43;;;;;;;;;;;;;;;11.97;82.95;100362.13;1863619;77;20190;-60
2022/11/17 02:26:21;;;;;;;;;;;;;;;11.99;82.76;100351.50;1863395;77;20116;-59
2022/11/17 02:28:50;;;;;;;;;;;;;;;12.02;82.54;100351.80;1861926;76;20167;-59
2022/11/17 02:31:21;;;;;;;;;;;;;;;12.03;82.43;100343.80;1911239;74;20111;-57
2022/11/17 02:33:57;;;;;;;;;;;;;;;12.03;82.36;100346.44;1920770;74;20122;-56
2022/11/17 02:36:29;;;;;;;;;;;;;;;12.02;82.35;100349.16;1911594;75;20154;-59
2022/11/17 02:39:04;;;;;;;;;;;;;;;12.05;82.35;100360.41;1912633;75;20213;-59
2022/11/17 02:41:49;;;;;;;;;;;;;;;12.11;82.30;100364.52;1915513;75;20881;-60
2022/11/17 02:44:18;;;;;;;;;;;;;;;12.16;82.17;100363.34;1918106;75;20217;-62
2022/11/17 02:46:49;;;;;;;;;;;;;;;12.20;82.01;100361.41;1867974;75;20236;-59
2022/11/17 02:49:28;;;;;;;;;;;;;;;12.24;81.96;100369.55;1894067;76;20155;-58
2022/11/17 02:51:57;;;;;;;;;;;;;;;12.27;82.00;100372.03;1893979;74;20120;-59
2022/11/17 02:54:26;;;;;;;;;;;;;;;12.27;82.15;100371.19;1893889;76;20104;-60
2022/11/17 02:56:54;;;;;;;;;;;;;;;12.22;82.47;100375.37;1893997;76;20151;-59
2022/11/17 02:59:26;;;;;;;;;;;;;;;12.17;82.80;100360.23;1890982;76;20302;-61
2022/11/17 03:01:55;;;;;;;;;;;;;;;12.14;82.88;100369.65;1893924;76;20112;-59
2022/11/17 03:04:31;;;;;;;;;;;;;;;12.14;82.92;100372.29;1893988;76;20104;-57
2022/11/17 03:07:00;;;;;;;;;;;;;;;12.17;82.84;100373.42;1875708;76;20615;-59
2022/11/17 03:09:29;;;;;;;;;;;;;;;12.20;82.67;100373.28;1852539;76;20119;-62
2022/11/17 03:12:01;;;;;;;;;;;;;;;12.24;82.43;100368.22;1852961;76;20149;-62
2022/11/17 03:14:34;;;;;;;;;;;;;;;12.24;82.36;100361.63;1852163;77;20115;-66
2022/11/17 03:17:03;;;;;;;;;;;;;;;12.24;82.31;100372.18;1854883;76;20119;-60
2022/11/17 03:19:35;;;;;;;;;;;;;;;12.27;82.26;100364.11;1852137;76;20115;-61
2022/11/17 03:22:07;;;;;;;;;;;;;;;12.29;82.17;100358.28;1852065;77;20201;-59
2022/11/17 03:24:42;;;;;;;;;;;;;;;12.32;82.02;100359.89;1852109;76;20106;-59
2022/11/17 03:27:15;;;;;;;;;;;;;;;12.31;81.92;100361.70;1855501;76;20123;-59
2022/11/17 03:29:44;;;;;;;;;;;;;;;12.29;81.79;100367.52;1852104;76;20166;-63
2022/11/17 03:32:13;;;;;;;;;;;;;;;12.29;81.69;100379.41;1859637;76;20381;-60
2022/11/17 03:34:42;;;;;;;;;;;;;;;12.30;81.64;100374.52;1862524;76;20205;-59
2022/11/17 03:37:12;;;;;;;;;;;;;;;12.31;81.58;100375.37;1889225;76;20112;-56
2022/11/17 03:39:53;;;;;;;;;;;;;;;12.28;81.54;100370.23;1892885;76;20367;-57
2022/11/17 03:42:22;;;;;;;;;;;;;;;12.28;81.53;100375.08;1894023;76;20124;-57
2022/11/17 03:44:52;;;;;;;;;;;;;;;12.29;81.44;100366.20;1884056;76;20098;-58
2022/11/17 03:47:21;;;;;;;;;;;;;;;12.31;81.23;100363.02;1837198;77;20213;-58
2022/11/17 03:49:56;;;;;;;;;;;;;;;12.35;81.05;100371.16;1855780;76;20150;-60
2022/11/17 03:52:24;;;;;;;;;;;;;;;12.35;80.96;100373.80;1860707;76;20123;-58
2022/11/17 03:54:52;;;;;;;;;;;;;;;12.32;80.96;100370.02;1861419;76;20263;-63
2022/11/17 03:57:22;;;;;;;;;;;;;;;12.32;80.90;100364.73;1854474;77;20123;-56
2022/11/17 03:59:54;;;;;;;;;;;;;;;12.32;80.81;100366.50;1882765;76;20121;-60
2022/11/17 04:02:23;;;;;;;;;;;;;;;12.31;80.60;100374.89;1894011;76;20120;-59
2022/11/17 04:05:06;;;;;;;;;;;;;;;12.34;80.45;100368.14;1893962;76;20140;-57
2022/11/17 04:07:35;;;;;;;;;;;;;;;12.35;80.26;100371.16;1890587;76;20163;-59
2022/11/17 04:10:04;;;;;;;;;;;;;;;12.35;79.83;100368.52;1893933;76;20163;-58
2022/11/17 04:18:04;;;;;;;;;;;;;;;12.41;78.76;100380.53;1863051;76;20225;-60
2022/11/17 04:20:35;;;;;;;;;;;;;;;12.43;78.57;100379.14;1852025;77;20115;-60
2022/11/17 04:23:06;;;;;;;;;;;;;;;12.43;78.46;100382.66;1852404;76;20174;-60
2022/11/17 04:28:38;;;;;;;;;;;;;;;12.45;78.01;100391.34;1854821;76;20420;-58
2022/11/17 04:31:11;;;;;;;;;;;;;;;12.47;78.01;100398.72;1852056;77;20118;-58
2022/11/17 04:33:43;;;;;;;;;;;;;;;12.49;77.88;100395.53;1862684;76;20389;-57
2022/11/17 04:36:12;;;;;;;;;;;;;;;12.50;77.84;100397.70;1891020;76;20153;-57
2022/11/17 04:38:43;;;;;;;;;;;;;;;12.51;77.71;100392.81;1893811;76;20179;-57
2022/11/17 04:43:59;;;;;;;;;;;;;;;12.51;77.79;100406.02;1889694;76;20121;-58
2022/11/17 04:46:27;;;;;;;;;;;;;;;12.52;77.61;100416.51;1852016;77;20161;-58
2022/11/17 04:48:55;;;;;;;;;;;;;;;12.55;77.52;100419.44;1851960;77;20115;-57
2022/11/17 04:51:23;;;;;;;;;;;;;;;12.57;77.39;100428.13;1852011;77;20193;-57
2022/11/17 04:53:52;;;;;;;;;;;;;;;12.59;77.40;100419.66;1852099;77;20150;-58
2022/11/17 04:56:20;;;;;;;;;;;;;;;12.63;77.43;100422.99;1888918;76;20113;-57
2022/11/17 04:58:48;;;;;;;;;;;;;;;12.65;77.39;100421.13;1893923;76;20116;-57
2022/11/17 05:01:17;;;;;;;;;;;;;;;12.65;77.46;100421.13;1893971;76;20117;-56
2022/11/17 05:03:49;;;;;;;;;;;;;;;12.67;77.53;100430.69;1887941;75;20134;-58
2022/11/17 05:06:18;;;;;;;;;;;;;;;12.68;77.69;100437.66;1862379;76;20351;-59
2022/11/17 05:08:47;;;;;;;;;;;;;;;12.64;78.12;100433.48;1890907;76;20118;-58
2022/11/17 05:14:01;;;;;;;;;;;;;;;12.47;79.21;100437.48;1893823;76;20417;-58
2022/11/17 05:19:16;;;;;;;;;;;;;;;12.28;80.27;100434.47;1893107;75;20151;-58
2022/11/17 05:21:44;;;;;;;;;;;;;;;12.21;81.16;100429.11;1890865;76;20159;-58
2022/11/17 05:24:16;;;;;;;;;;;;;;;12.18;81.36;100430.58;1890143;76;20139;-60
2022/11/17 05:26:44;;;;;;;;;;;;;;;12.15;81.40;100429.41;1894300;75;20238;-60
2022/11/17 05:29:14;;;;;;;;;;;;;;;12.13;81.30;100437.39;1894365;76;20127;-60
2022/11/17 05:31:42;;;;;;;;;;;;;;;12.12;81.44;100440.14;1880406;76;20435;-58
2022/11/17 05:34:16;;;;;;;;;;;;;;;12.10;82.54;100449.92;1866727;76;20123;-57
2022/11/17 05:36:48;;;;;;;;;;;;;;;12.08;82.44;100443.39;1890827;76;20403;-58
2022/11/17 05:39:15;;;;;;;;;;;;;;;12.07;82.48;100430.27;1890082;76;20250;-60
2022/11/17 05:41:43;;;;;;;;;;;;;;;12.05;82.75;100424.22;1894350;76;20207;-58
2022/11/17 05:44:11;;;;;;;;;;;;;;;12.04;83.05;100427.30;1894403;76;20146;-58
2022/11/17 05:46:39;;;;;;;;;;;;;;;12.03;83.05;100426.92;1890863;76;20155;-58
2022/11/17 05:49:07;;;;;;;;;;;;;;;12.05;83.51;100430.81;1876184;76;20121;-59
2022/11/17 05:51:38;;;;;;;;;;;;;;;12.07;83.31;100428.95;1875825;76;20129;-58
2022/11/17 05:54:05;;;;;;;;;;;;;;;12.13;83.22;100422.03;1874379;76;20117;-57
2022/11/17 05:56:43;;;;;;;;;;;;;;;12.19;83.03;100421.73;1878310;76;20121;-62
2022/11/17 05:59:11;;;;;;;;;;;;;;;12.24;82.91;100418.38;1878142;76;20142;-62
2022/11/17 06:01:40;;;;;;;;;;;;;;;12.31;82.83;100422.41;1865234;75;20280;-61
2022/11/17 06:04:09;;;;;;;;;;;;;;;12.39;82.90;100422.48;1826793;76;20146;-62
2022/11/17 06:06:37;;;;;;;;;;;;;;;12.52;83.14;100414.31;1841486;76;20127;-62
2022/11/17 06:09:05;;;;;;;;;;;;;;;12.68;82.88;100417.85;1845299;78;20193;-62
2022/11/17 06:11:33;;;;;;;;;;;;;;;12.85;82.68;100417.42;1845268;78;20158;-61
2022/11/17 06:14:01;;;;;;;;;;;;;;;13.02;82.56;100417.39;1845453;78;20142;-62
2022/11/17 06:16:30;;;;;;;;;;;;;;;13.16;82.40;100407.84;1844755;76;20119;-64
2022/11/17 06:19:02;;;;;;;;;;;;;;;13.24;82.07;100417.51;1871098;76;20164;-62
2022/11/17 06:21:30;;;;;;;;;;;;;;;13.31;81.86;100421.08;1826883;76;20123;-59
2022/11/17 06:23:59;;;;;;;;;;;;;;;13.46;81.66;100415.43;1823213;79;20232;-61
2022/11/17 06:26:27;;;;;;;;;;;;;;;13.58;81.37;100422.28;1835467;76;20190;-61
2022/11/17 06:28:55;;;;;;;;;;;;;;;13.60;81.14;100425.70;1845340;78;20201;-61
2022/11/17 06:31:26;;;;;;;;;;;;;;;13.62;80.99;100423.81;1845272;78;20178;-61
2022/11/17 06:33:53;;;;;;;;;;;;;;;13.60;80.85;100419.08;1840065;78;20154;-61
2022/11/17 06:36:21;;;;;;;;;;;;;;;13.60;80.78;100405.38;1858141;76;20105;-60
2022/11/17 06:38:49;;;;;;;;;;;;;;;13.63;80.86;100409.63;1847270;76;20127;-67
2022/11/17 06:41:17;;;;;;;;;;;;;;;13.63;80.72;100399.92;1830573;76;20121;-59
2022/11/17 06:43:52;;;;;;;;;;;;;;;13.68;80.48;100410.22;1846591;76;20117;-59
2022/11/17 06:46:36;;;;;;;;;;;;;;;13.77;80.29;100410.17;1872098;76;20237;-59
2022/11/17 06:48:54;;;;;;;;;;;;;;;13.79;79.91;100405.16;1856284;75;20177;-59
2022/11/17 06:51:22;;;;;;;;;;;;;;;13.78;79.75;100406.60;1855639;77;20127;-59
2022/11/17 06:53:50;;;;;;;;;;;;;;;13.77;79.68;100410.17;1855675;77;20122;-58
2022/11/17 06:56:18;;;;;;;;;;;;;;;13.71;79.52;100412.70;1855620;77;20190;-60
2022/11/17 06:58:46;;;;;;;;;;;;;;;13.65;79.56;100413.06;1855032;76;20119;-59
2022/11/17 07:01:14;;;;;;;;;;;;;;;13.57;79.78;100410.83;1852084;77;20166;-59
2022/11/17 07:03:42;;;;;;;;;;;;;;;13.50;79.97;100406.83;1852130;77;20119;-60
2022/11/17 07:06:10;;;;;;;;;;;;;;;13.41;80.23;100408.22;1852143;77;20146;-60
2022/11/17 07:08:38;;;;;;;;;;;;;;;13.38;80.35;100407.53;1861708;76;20114;-60
2022/11/17 07:11:11;;;;;;;;;;;;;;;13.36;80.51;100397.52;1875680;76;20129;-59
2022/11/17 07:13:38;;;;;;;;;;;;;;;13.39;80.48;100404.81;1890920;75;20147;-59
2022/11/17 07:16:08;;;;;;;;;;;;;;;13.70;80.19;100403.05;1893987;76;20119;-60
2022/11/17 07:18:41;;;;;;;;;;;;;;;14.47;78.62;100403.83;1893973;76;20191;-60
2022/11/17 07:21:09;;;;;;;;;;;;;;;14.54;77.85;100403.83;1882443;76;20155;-59
2022/11/17 07:23:37;;;;;;;;;;;;;;;16.18;75.50;100396.94;1852455;76;20119;-60
2022/11/17 07:26:05;;;;;;;;;;;;;;;17.77;72.33;100395.85;1852175;77;20377;-60
2022/11/17 07:28:34;;;;;;;;;;;;;;;18.55;68.90;100390.88;1857462;76;20122;-61
2022/11/17 07:31:03;;;;;;;;;;;;;;;18.78;67.37;100376.59;1860483;77;20119;-61
2022/11/17 07:33:31;;;;;;;;;;;;;;;18.27;66.70;100388.52;1860278;77;20122;-62
2022/11/17 07:36:05;;;;;;;;;;;;;;;17.12;67.65;100379.78;1860363;76;20221;-63
2022/11/17 07:38:33;;;;;;;;;;;;;;;16.39;69.61;100389.29;1857227;76;20451;-57
2022/11/17 07:41:02;;;;;;;;;;;;;;;15.83;71.01;100393.03;1854807;76;20103;-56
2022/11/17 07:43:30;;;;;;;;;;;;;;;15.83;71.64;100378.43;1852254;77;20127;-56
2022/11/17 07:45:58;;;;;;;;;;;;;;;15.60;71.99;100381.72;1852113;77;20106;-56
2022/11/17 07:48:26;;;;;;;;;;;;;;;15.39;72.50;100364.93;1857318;76;20115;-55
2022/11/17 07:50:55;;;;;;;;;;;;;;;15.35;72.66;100371.39;1863937;76;20153;-60
2022/11/17 07:53:23;;;;;;;;;;;;;;;15.43;72.45;100379.69;1860606;77;20126;-61
2022/11/17 07:55:51;;;;;;;;;;;;;;;15.27;72.56;100377.69;1860396;77;20115;-58
2022/11/17 07:58:19;;;;;;;;;;;;;;;14.96;72.84;100381.44;1868509;76;20116;-58
2022/11/17 08:00:47;;;;;;;;;;;;;;;14.77;73.47;100375.09;1893856;76;20120;-57
2022/11/17 08:03:14;;;;;;;;;;;;;;;14.67;73.98;100376.98;1894000;76;20252;-60
2022/11/17 08:05:42;;;;;;;;;;;;;;;15.65;72.41;100380.95;1893622;76;20104;-59
2022/11/17 08:08:12;;;;;;;;;;;;;;;16.64;69.93;100377.81;1892103;76;20110;-61
2022/11/17 08:10:43;;;;;;;;;;;;;;;17.03;67.18;100360.50;1891084;76;20128;-59
2022/11/17 08:13:10;;;;;;;;;;;;;;;16.36;68.85;100345.20;1886155;75;20110;-60
2022/11/17 08:15:38;;;;;;;;;;;;;;;15.81;70.07;100338.35;1853765;76;20267;-60
2022/11/17 08:18:05;;;;;;;;;;;;;;;15.97;70.41;100358.06;1884247;76;20163;-60
2022/11/17 08:20:33;;;;;;;;;;;;;;;15.93;70.20;100364.53;1890932;76;20151;-60
2022/11/17 08:23:01;;;;;;;;;;;;;;;15.53;71.06;100345.47;1893977;76;20124;-60
2022/11/17 08:25:29;;;;;;;;;;;;;;;15.27;71.91;100364.42;1893925;76;20112;-60
2022/11/17 08:27:58;;;;;;;;;;;;;;;15.54;72.18;100355.59;1875519;75;20127;-56
2022/11/17 08:30:26;;;;;;;;;;;;;;;16.28;69.72;100342.69;1852054;77;20166;-59
2022/11/17 08:32:54;;;;;;;;;;;;;;;17.19;66.13;100335.81;1892665;76;20124;-59
2022/11/17 08:35:24;;;;;;;;;;;;;;;17.89;64.12;100346.16;1858531;76;20110;-59
2022/11/17 08:37:52;;;;;;;;;;;;;;;18.70;61.60;100354.99;1854857;76;20230;-61
2022/11/17 08:40:20;;;;;;;;;;;;;;;18.52;59.72;100335.50;1851954;77;20107;-62
2022/11/17 08:42:49;;;;;;;;;;;;;;;18.45;60.39;100317.45;1852004;77;20174;-59
2022/11/17 08:45:17;;;;;;;;;;;;;;;18.11;60.86;100314.27;1852330;76;20123;-61
2022/11/17 08:47:46;;;;;;;;;;;;;;;18.59;59.36;100322.54;1885047;75;20108;-61
2022/11/17 08:50:13;;;;;;;;;;;;;;;18.89;58.30;100328.59;1896101;74;20147;-61
2022/11/17 08:52:41;;;;;;;;;;;;;;;18.81;58.35;100328.37;1894070;76;20124;-60
2022/11/17 08:55:09;;;;;;;;;;;;;;;18.29;59.52;100330.62;1893773;75;20147;-60
2022/11/17 08:57:37;;;;;;;;;;;;;;;17.64;60.89;100340.00;1869001;76;20201;-61
2022/11/17 09:00:06;;;;;;;;;;;;;;;17.09;61.60;100317.48;1852098;77;20154;-60
2022/11/17 09:02:33;;;;;;;;;;;;;;;16.68;62.95;100329.27;1852145;77;20107;-59
2022/11/17 09:05:02;;;;;;;;;;;;;;;16.41;63.97;100340.88;1852131;77;20123;-61
2022/11/17 09:07:33;;;;;;;;;;;;;;;16.20;64.58;100321.98;1852822;76;20110;-60
2022/11/17 09:10:01;;;;;;;;;;;;;;;16.05;64.98;100307.95;1852278;77;20150;-57
2022/11/17 09:12:29;;;;;;;;;;;;;;;16.44;64.56;100332.70;1852090;77;20122;-57
2022/11/17 09:14:57;;;;;;;;;;;;;;;16.82;63.87;100330.47;1852146;77;20123;-58
2022/11/17 09:17:24;;;;;;;;;;;;;;;17.41;62.06;100304.94;1853980;76;20158;-60
2022/11/17 09:19:53;;;;;;;;;;;;;;;17.66;60.86;100311.45;1852416;76;20119;-61
2022/11/17 09:22:21;;;;;;;;;;;;;;;17.94;60.57;100286.73;1852032;77;20247;-61
2022/11/17 09:24:49;;;;;;;;;;;;;;;18.05;59.96;100311.22;1852133;77;20150;-58
2022/11/17 09:27:17;;;;;;;;;;;;;;;17.83;60.72;100320.81;1852118;77;20119;-58
2022/11/17 09:29:44;;;;;;;;;;;;;;;17.57;61.51;100306.82;1853941;76;20150;-62
2022/11/17 09:32:18;;;;;;;;;;;;;;;17.55;61.58;100318.06;1852140;77;20123;-59
2022/11/17 09:34:42;;;;;;;;;;;;;;;17.07;62.53;100320.73;1875501;76;20112;-60
2022/11/17 09:37:09;;;;;;;;;;;;;;;16.71;63.82;100321.05;1894031;76;20116;-62
2022/11/17 09:39:37;;;;;;;;;;;;;;;16.50;64.10;100317.64;1891135;76;20109;-58
2022/11/17 09:42:05;;;;;;;;;;;;;;;16.32;64.78;100328.23;1893968;76;20116;-58
2022/11/17 09:44:44;;;;;;;;;;;;;;;16.12;65.29;100326.49;1894073;76;20120;-57
2022/11/17 09:47:29;;;;;;;;;;;;;;;15.95;65.99;100326.78;1892363;74;20430;-57
2022/11/17 09:50:02;;;;;;;;;;;;;;;15.73;66.51;100319.39;1889859;75;20124;-57
2022/11/17 09:52:31;;;;;;;;;;;;;;;15.81;66.63;100333.88;1891054;76;20155;-57
2022/11/17 09:55:01;;;;;;;;;;;;;;;15.78;66.96;100331.91;1894048;76;20143;-57
2022/11/17 09:57:36;;;;;;;;;;;;;;;15.74;67.22;100329.09;1896670;74;20120;-61
2022/11/17 10:00:05;;;;;;;;;;;;;;;15.72;67.52;100326.99;1889114;76;20108;-59
2022/11/17 10:02:33;;;;;;;;;;;;;;;15.77;67.63;100315.14;1891179;76;20104;-59
2022/11/17 10:05:06;;;;;;;;;;;;;;;15.86;67.34;100322.09;1894039;76;20104;-62
2022/11/17 10:07:32;;;;;;;;;;;;;;;15.82;67.40;100313.48;1893939;76;20151;-60
2022/11/17 10:10:02;;;;;;;;;;;;;;;15.75;68.15;100308.22;1893169;76;20155;-61
2022/11/17 10:12:34;;;;;;;;;;;;;;;15.69;68.35;100292.20;1893062;76;20370;-57
2022/11/17 10:15:21;;;;;;;;;;;;;;;15.53;68.68;100324.69;1894008;74;20120;-57
2022/11/17 10:17:50;;;;;;;;;;;;;;;15.36;69.08;100316.08;1894783;74;20116;-57
2022/11/17 10:20:18;;;;;;;;;;;;;;;15.25;69.87;100319.88;1893997;76;20112;-57
2022/11/17 10:22:46;;;;;;;;;;;;;;;15.17;69.99;100316.89;1857030;76;20107;-57
2022/11/17 10:25:21;;;;;;;;;;;;;;;15.14;70.58;100321.05;1852178;77;20150;-56
2022/11/17 10:27:54;;;;;;;;;;;;;;;15.13;70.76;100323.34;1854028;76;20114;-58
2022/11/17 10:30:26;;;;;;;;;;;;;;;15.11;70.95;100318.63;1851673;77;20153;-60
2022/11/17 10:32:52;;;;;;;;;;;;;;;15.22;70.78;100316.13;1853295;76;20123;-64
2022/11/17 10:35:21;;;;;;;;;;;;;;;15.41;70.69;100313.95;1892157;76;20159;-61
2022/11/17 10:38:00;;;;;;;;;;;;;;;15.48;70.61;100308.25;1894037;76;20147;-61
2022/11/17 10:40:32;;;;;;;;;;;;;;;15.43;70.66;100305.89;1893944;76;20207;-61
2022/11/17 10:43:02;;;;;;;;;;;;;;;15.39;70.81;100317.17;1890582;76;20113;-61
2022/11/17 10:45:31;;;;;;;;;;;;;;;15.34;71.00;100323.25;1896629;74;20108;-62
2022/11/17 10:48:17;;;;;;;;;;;;;;;15.36;70.98;100320.51;1894056;76;20359;-61
2022/11/17 10:50:52;;;;;;;;;;;;;;;15.51;70.75;100317.31;1894101;76;20147;-61
2022/11/17 10:53:27;;;;;;;;;;;;;;;15.54;70.44;100304.70;1891060;76;20143;-61
2022/11/17 10:56:06;;;;;;;;;;;;;;;15.50;70.01;100312.49;1893964;76;20104;-61
2022/11/17 10:58:35;;;;;;;;;;;;;;;15.54;69.91;100299.88;1894048;76;20112;-61
2022/11/17 11:01:03;;;;;;;;;;;;;;;15.81;69.22;100309.99;1897375;74;20116;-61
2022/11/17 11:03:32;;;;;;;;;;;;;;;15.78;68.70;100306.69;1891010;76;20150;-61
2022/11/17 11:06:02;;;;;;;;;;;;;;;15.77;68.68;100309.83;1894033;76;20142;-62
2022/11/17 11:08:32;;;;;;;;;;;;;;;15.80;68.09;100301.64;1893886;76;20379;-61
2022/11/17 11:11:01;;;;;;;;;;;;;;;16.14;67.25;100302.00;1897934;74;20154;-61
2022/11/17 11:13:30;;;;;;;;;;;;;;;16.08;66.71;100303.73;1890918;76;20146;-61
2022/11/17 11:15:58;;;;;;;;;;;;;;;15.87;67.21;100290.63;1903351;74;20112;-59
2022/11/17 11:18:27;;;;;;;;;;;;;;;15.80;67.38;100312.26;1894062;76;20105;-61
2022/11/17 11:21:10;;;;;;;;;;;;;;;15.80;67.54;100291.51;1886359;76;20115;-60
2022/11/17 11:23:43;;;;;;;;;;;;;;;15.70;67.99;100309.00;1880399;76;20120;-62
2022/11/17 11:26:09;;;;;;;;;;;;;;;15.70;68.20;100299.70;1860944;77;20118;-55
2022/11/17 11:28:51;;;;;;;;;;;;;;;15.81;67.68;100306.49;1861983;76;20146;-62
2022/11/17 11:31:32;;;;;;;;;;;;;;;15.75;67.75;100313.08;1881069;76;20153;-58
2022/11/17 11:34:04;;;;;;;;;;;;;;;15.60;67.81;100306.09;1860695;76;20126;-64
2022/11/17 11:36:33;;;;;;;;;;;;;;;15.47;68.33;100296.77;1909476;74;20430;-58
2022/11/17 11:39:02;;;;;;;;;;;;;;;15.46;68.52;100292.91;1893946;76;20146;-58
2022/11/17 11:41:42;;;;;;;;;;;;;;;15.48;68.50;100302.95;1865432;74;20119;-58
2022/11/17 11:44:21;;;;;;;;;;;;;;;15.42;68.26;100304.20;1852737;76;20194;-58
2022/11/17 11:46:50;;;;;;;;;;;;;;;15.40;68.15;100279.09;1888777;76;20112;-59
2022/11/17 11:49:36;;;;;;;;;;;;;;;15.38;68.12;100292.95;1890962;74;20159;-56
2022/11/17 11:52:11;;;;;;;;;;;;;;;15.36;68.31;100291.33;1841282;76;20126;-58
2022/11/17 11:54:49;;;;;;;;;;;;;;;15.33;68.45;100289.73;1852015;77;20189;-59
2022/11/17 11:57:25;;;;;;;;;;;;;;;15.30;68.69;100291.74;1850635;76;20107;-60
2022/11/17 11:59:55;;;;;;;;;;;;;;;15.25;68.71;100282.75;1864987;76;20124;-65
2022/11/17 12:02:30;;;;;;;;;;;;;;;15.21;68.63;100284.75;1886847;74;20116;-60
2022/11/17 12:05:15;;;;;;;;;;;;;;;15.17;68.68;100294.34;1893119;74;20203;-59
2022/11/17 12:07:58;;;;;;;;;;;;;;;15.19;69.00;100295.94;1871796;76;20375;-59
2022/11/17 12:10:31;;;;;;;;;;;;;;;15.27;68.92;100291.48;1894089;74;20202;-59
2022/11/17 12:13:00;;;;;;;;;;;;;;;15.30;68.77;100289.09;1893879;75;20116;-60
2022/11/17 12:15:32;;;;;;;;;;;;;;;15.22;68.72;100289.60;1893884;75;20203;-59
2022/11/17 12:18:03;;;;;;;;;;;;;;;15.15;68.88;100282.52;1865951;75;20111;-59
2022/11/17 12:20:34;;;;;;;;;;;;;;;15.05;68.92;100284.92;1857430;76;20117;-59
2022/11/17 12:23:14;;;;;;;;;;;;;;;15.01;68.85;100281.22;1857875;76;20410;-47
2022/11/17 12:25:49;;;;;;;;;;;;;;;15.00;68.90;100301.59;1867362;76;20156;-53
2022/11/17 12:28:31;;;;;;;;;;;;;;;14.95;68.94;100294.41;1853026;77;20170;-51
2022/11/17 12:31:01;;;;;;;;;;;;;;;14.90;68.92;100294.33;1883982;76;20143;-52
2022/11/17 12:33:34;;;;;;;;;;;;;;;14.85;68.62;100295.97;1864090;76;20119;-52
2022/11/17 12:36:20;;;;;;;;;;;;;;;14.83;68.42;100299.19;1851602;76;20149;-59
2022/11/17 12:38:48;;;;;;;;;;;;;;;14.81;68.61;100296.62;1862379;77;20111;-58
2022/11/17 12:41:17;;;;;;;;;;;;;;;14.82;68.61;100283.73;1862458;77;20145;-59
2022/11/17 12:43:45;;;;;;;;;;;;;;;14.81;68.75;100293.11;1864513;76;20157;-59
2022/11/17 12:46:17;;;;;;;;;;;;;;;14.79;68.83;100283.08;1860374;76;20106;-59
2022/11/17 12:48:53;;;;;;;;;;;;;;;14.76;68.93;100299.20;1851925;77;20150;-59
2022/11/17 12:51:28;;;;;;;;;;;;;;;14.74;69.07;100299.77;1854743;76;20153;-59
2022/11/17 12:53:57;;;;;;;;;;;;;;;14.73;69.09;100306.01;1854171;76;20123;-59
2022/11/17 12:56:26;;;;;;;;;;;;;;;14.72;69.05;100298.99;1853114;74;20146;-61
2022/11/17 12:58:55;;;;;;;;;;;;;;;14.73;69.12;100308.66;1890221;75;20120;-60
2022/11/17 13:01:37;;;;;;;;;;;;;;;14.71;69.26;100305.26;1893979;76;20183;-59
2022/11/17 13:04:09;;;;;;;;;;;;;;;14.71;69.38;100297.31;1894016;75;20112;-59
2022/11/17 13:06:37;;;;;;;;;;;;;;;14.71;69.37;100290.69;1894018;75;20198;-60
2022/11/17 13:09:06;;;;;;;;;;;;;;;14.69;69.03;100289.94;1891091;76;20104;-60
2022/11/17 13:11:34;;;;;;;;;;;;;;;14.67;68.94;100297.49;1893950;76;20120;-59
2022/11/17 13:14:10;;;;;;;;;;;;;;;14.65;68.88;100294.09;1894061;76;20116;-59
2022/11/17 13:16:39;;;;;;;;;;;;;;;14.62;69.03;100302.22;1889561;76;20167;-58
2022/11/17 13:19:08;;;;;;;;;;;;;;;14.61;69.06;100297.89;1855318;76;20150;-59